createdAt,value
2018-11-11T00:01:26.207Z,716.70
2018-11-11T00:03:55.182Z,635.77
2018-11-11T00:06:26.775Z,656.63
2018-11-11T00:08:55.983Z,676.17
2018-11-11T00:11:25.227Z,677.63
2018-11-11T00:13:54.363Z,701.30
2018-11-11T00:16:23.372Z,737.50
2018-11-11T00:18:52.429Z,735.37
2018-11-11T00:21:21.447Z,740.20
2018-11-11T00:23:50.748Z,744.20
2018-11-11T00:26:19.854Z,750.77
2018-11-11T00:28:49.326Z,773.93
2018-11-11T00:31:18.340Z,772.73
2018-11-11T00:33:48.216Z,739.93
2018-11-11T00:36:18.694Z,755.80
2018-11-11T00:38:49.540Z,732.43
2018-11-11T00:41:18.600Z,750.63
2018-11-11T00:43:47.571Z,755.40
2018-11-11T00:46:16.589Z,735.70
2018-11-11T00:48:45.600Z,702.07
2018-11-11T00:51:14.627Z,712.03
2018-11-11T00:53:43.617Z,696.67
2018-11-11T00:56:12.557Z,692.13
2018-11-11T00:58:41.563Z,695.80
2018-11-11T01:01:10.578Z,686.53
2018-11-11T01:03:39.657Z,652.37
2018-11-11T01:06:08.639Z,648.10
2018-11-11T01:08:37.587Z,621.63
2018-11-11T01:11:06.592Z,590.50
2018-11-11T01:13:35.568Z,582.40
2018-11-11T01:16:04.803Z,588.87
2018-11-11T01:18:33.780Z,587.27
2018-11-11T01:21:02.722Z,568.17
2018-11-11T01:23:31.722Z,554.00
2018-11-11T01:26:00.657Z,553.80
2018-11-11T01:28:29.655Z,552.67
2018-11-11T01:30:58.672Z,565.93
2018-11-11T01:33:27.696Z,563.50
2018-11-11T01:35:56.659Z,593.40
2018-11-11T01:38:25.632Z,575.57
2018-11-11T01:40:54.647Z,591.53
2018-11-11T01:43:23.625Z,557.93
2018-11-11T01:45:52.628Z,566.93
2018-11-11T01:48:21.599Z,569.03
2018-11-11T01:50:50.631Z,571.43
2018-11-11T01:53:19.581Z,573.00
2018-11-11T01:55:48.608Z,557.27
2018-11-11T01:58:17.639Z,577.50
2018-11-11T02:00:46.660Z,550.40
2018-11-11T02:03:15.632Z,556.33
2018-11-11T02:05:44.644Z,561.97
2018-11-11T02:08:13.605Z,585.20
2018-11-11T02:10:42.620Z,576.27
2018-11-11T02:13:11.621Z,578.43
2018-11-11T02:15:40.621Z,595.90
2018-11-11T02:18:09.597Z,564.27
2018-11-11T02:20:38.607Z,598.17
2018-11-11T02:23:07.595Z,604.80
2018-11-11T02:25:36.624Z,647.90
2018-11-11T02:28:05.831Z,665.23
2018-11-11T02:30:34.831Z,696.77
2018-11-11T02:33:03.832Z,724.60
2018-11-11T02:35:32.768Z,715.07
2018-11-11T02:38:01.761Z,717.60
2018-11-11T02:40:30.737Z,725.50
2018-11-11T02:42:59.732Z,712.77
2018-11-11T02:45:28.678Z,708.43
2018-11-11T02:47:57.660Z,717.30
2018-11-11T02:50:26.646Z,731.33
2018-11-11T02:52:55.709Z,737.30
2018-11-11T02:55:24.695Z,736.40
2018-11-11T02:57:53.631Z,724.17
2018-11-11T03:00:22.635Z,732.33
2018-11-11T03:02:51.616Z,762.73
2018-11-11T03:05:20.763Z,753.50
2018-11-11T03:07:49.748Z,746.50
2018-11-11T03:10:19.100Z,744.63
2018-11-11T03:12:49.090Z,759.40
2018-11-11T03:15:18.511Z,772.17
2018-11-11T03:17:47.651Z,739.40
2018-11-11T03:20:17.130Z,773.73
2018-11-11T03:22:46.100Z,757.03
2018-11-11T03:25:16.045Z,779.50
2018-11-11T03:27:45.090Z,773.57
2018-11-11T03:30:26.209Z,799.70
2018-11-11T03:32:55.210Z,795.17
2018-11-11T03:35:24.215Z,785.10
2018-11-11T03:37:53.221Z,797.57
2018-11-11T03:40:22.168Z,764.87
2018-11-11T03:42:51.672Z,773.40
2018-11-11T03:45:21.402Z,781.63
2018-11-11T03:47:51.427Z,760.37
2018-11-11T03:50:20.475Z,796.33
2018-11-11T03:52:49.491Z,774.63
2018-11-11T03:55:18.585Z,789.40
2018-11-11T03:57:47.566Z,795.83
2018-11-11T04:00:17.324Z,794.03
2018-11-11T04:02:46.340Z,774.77
2018-11-11T04:05:16.527Z,779.07
2018-11-11T04:07:45.560Z,779.57
2018-11-11T04:10:16.020Z,762.67
2018-11-11T04:12:45.431Z,731.47
2018-11-11T04:15:15.826Z,735.40
2018-11-11T04:17:44.855Z,687.43
2018-11-11T04:20:15.260Z,669.57
2018-11-11T04:22:44.248Z,632.20
2018-11-11T04:25:13.956Z,632.23
2018-11-11T04:27:42.963Z,581.67
2018-11-11T04:30:13.071Z,604.27
2018-11-11T04:32:42.363Z,588.50
2018-11-11T04:35:11.584Z,586.80
2018-11-11T04:37:40.595Z,599.27
2018-11-11T04:40:11.113Z,588.83
2018-11-11T04:42:40.088Z,604.43
2018-11-11T04:45:11.350Z,598.07
2018-11-11T04:47:40.332Z,602.37
2018-11-11T04:50:11.352Z,626.37
2018-11-11T04:52:40.387Z,610.40
2018-11-11T04:55:10.004Z,599.23
2018-11-11T04:57:39.124Z,608.07
2018-11-11T05:00:09.312Z,603.43
2018-11-11T05:02:38.544Z,610.43
2018-11-11T05:05:08.152Z,628.07
2018-11-11T05:07:37.140Z,618.00
2018-11-11T05:10:06.407Z,640.37
2018-11-11T05:12:35.803Z,631.10
2018-11-11T05:15:05.327Z,643.87
2018-11-11T05:17:34.329Z,661.00
2018-11-11T05:20:03.335Z,656.67
2018-11-11T05:22:32.339Z,684.93
2018-11-11T05:25:01.332Z,686.93
2018-11-11T05:27:30.292Z,688.07
2018-11-11T05:29:59.281Z,712.47
2018-11-11T05:32:28.257Z,701.73
2018-11-11T05:34:57.261Z,676.23
2018-11-11T05:37:26.368Z,648.77
2018-11-11T05:39:55.378Z,645.90
2018-11-11T05:42:24.352Z,695.77
2018-11-11T05:44:53.355Z,685.17
2018-11-11T05:47:22.329Z,693.07
2018-11-11T05:49:51.332Z,697.70
2018-11-11T05:52:20.289Z,701.10
2018-11-11T05:54:49.281Z,751.70
2018-11-11T05:57:18.264Z,705.37
2018-11-11T05:59:47.362Z,737.87
2018-11-11T06:02:17.114Z,754.67
2018-11-11T06:04:46.110Z,765.60
2018-11-11T06:07:15.080Z,771.83
2018-11-11T06:09:44.094Z,773.37
2018-11-11T06:12:13.084Z,800.97
2018-11-11T06:14:42.084Z,786.63
2018-11-11T06:17:11.074Z,808.73
2018-11-11T06:19:40.068Z,818.27
2018-11-11T06:22:09.052Z,826.00
2018-11-11T06:24:38.093Z,806.23
2018-11-11T06:27:07.107Z,828.27
2018-11-11T06:29:36.128Z,813.23
2018-11-11T06:32:05.950Z,827.60
2018-11-11T06:34:35.013Z,830.47
2018-11-11T06:37:03.997Z,824.03
2018-11-11T06:39:33.016Z,828.43
2018-11-11T06:42:01.952Z,802.97
2018-11-11T06:44:30.875Z,773.47
2018-11-11T06:46:59.856Z,721.63
2018-11-11T06:49:28.798Z,696.57
2018-11-11T06:51:57.773Z,656.37
2018-11-11T06:54:26.711Z,606.93
2018-11-11T06:56:55.700Z,600.27
2018-11-11T06:59:24.635Z,600.93
2018-11-11T07:01:53.940Z,615.80
2018-11-11T07:04:22.889Z,594.43
2018-11-11T07:06:51.875Z,599.87
2018-11-11T07:09:20.876Z,577.27
2018-11-11T07:11:49.819Z,600.20
2018-11-11T07:14:18.809Z,633.70
2018-11-11T07:16:47.745Z,633.83
2018-11-11T07:19:16.715Z,628.23
2018-11-11T07:21:45.638Z,615.70
2018-11-11T07:24:14.692Z,632.03
2018-11-11T07:26:43.783Z,639.53
2018-11-11T07:29:12.777Z,632.93
2018-11-11T07:31:41.755Z,630.87
2018-11-11T07:34:10.756Z,631.87
2018-11-11T07:36:39.711Z,639.97
2018-11-11T07:39:10.788Z,640.70
2018-11-11T07:41:39.770Z,640.30
2018-11-11T07:44:08.787Z,627.10
2018-11-11T07:46:37.940Z,569.10
2018-11-11T07:49:06.995Z,565.77
2018-11-11T07:51:36.267Z,546.23
2018-11-11T07:54:05.536Z,543.77
2018-11-11T07:56:34.514Z,480.33
2018-11-11T07:59:03.552Z,477.37
2018-11-11T08:01:32.666Z,462.03
2018-11-11T08:04:05.094Z,437.20
2018-11-11T08:06:34.107Z,427.07
2018-11-11T08:09:06.417Z,450.50
2018-11-11T08:11:46.676Z,437.13
2018-11-11T08:14:15.689Z,433.70
2018-11-11T08:16:44.753Z,424.73
2018-11-11T08:19:13.847Z,299.17
2018-11-11T08:21:45.954Z,280.37
2018-11-11T08:24:14.984Z,283.93
2018-11-11T08:26:44.061Z,340.43
2018-11-11T08:29:13.121Z,273.00
2018-11-11T08:31:42.797Z,263.43
2018-11-11T08:34:12.015Z,274.80
2018-11-11T08:36:41.112Z,297.73
2018-11-11T08:39:11.576Z,270.93
2018-11-11T08:41:41.905Z,260.57
2018-11-11T08:44:11.688Z,265.73
2018-11-11T08:46:42.133Z,282.57
2018-11-11T08:49:12.489Z,286.60
2018-11-11T08:51:41.851Z,267.93
2018-11-11T08:54:11.006Z,284.97
2018-11-11T08:56:40.140Z,279.20
2018-11-11T08:59:09.280Z,277.97
2018-11-11T09:01:38.447Z,286.30
2018-11-11T09:04:07.743Z,276.10
2018-11-11T09:06:36.840Z,300.70
2018-11-11T09:09:09.684Z,288.33
2018-11-11T09:11:38.942Z,308.93
2018-11-11T09:14:07.820Z,303.43
2018-11-11T09:16:36.796Z,301.77
2018-11-11T09:19:06.181Z,322.27
2018-11-11T09:21:35.255Z,308.43
2018-11-11T09:24:05.964Z,317.00
2018-11-11T09:26:34.950Z,314.13
2018-11-11T09:29:06.460Z,327.67
2018-11-11T09:31:35.625Z,319.60
2018-11-11T09:34:04.624Z,319.70
2018-11-11T09:36:33.672Z,338.07
2018-11-11T09:39:02.694Z,335.63
2018-11-11T09:41:33.310Z,364.00
2018-11-11T09:44:02.745Z,385.30
2018-11-11T09:46:31.720Z,383.27
2018-11-11T09:49:00.816Z,376.47
2018-11-11T09:51:29.872Z,365.50
2018-11-11T09:53:58.862Z,318.80
2018-11-11T09:56:34.452Z,266.07
2018-11-11T09:59:03.404Z,296.30
2018-11-11T10:01:32.438Z,290.70
2018-11-11T10:04:08.987Z,285.50
2018-11-11T10:07:15.050Z,307.77
2018-11-11T10:09:49.549Z,329.37
2018-11-11T10:12:55.291Z,297.17
2018-11-11T10:17:34.979Z,282.30
2018-11-11T10:20:12.338Z,305.57
2018-11-11T10:22:51.517Z,290.40
2018-11-11T10:25:25.585Z,294.67
2018-11-11T10:29:05.984Z,310.90
2018-11-11T10:31:40.540Z,298.20
2018-11-11T10:34:13.259Z,288.07
2018-11-11T10:36:44.961Z,295.57
2018-11-11T10:39:21.418Z,304.97
2018-11-11T10:41:58.138Z,337.03
2018-11-11T10:44:35.952Z,381.23
2018-11-11T10:47:07.075Z,381.23
2018-11-11T10:49:39.608Z,398.63
2018-11-11T10:52:08.636Z,425.17
2018-11-11T10:54:37.669Z,445.83
2018-11-11T10:57:06.681Z,447.90
2018-11-11T10:59:35.686Z,458.20
2018-11-11T11:02:10.080Z,453.00
2018-11-11T11:04:44.505Z,444.37
2018-11-11T11:07:13.549Z,495.73
2018-11-11T11:09:42.550Z,419.60
2018-11-11T11:12:11.530Z,389.73
2018-11-11T11:14:40.544Z,370.93
2018-11-11T11:17:09.560Z,368.20
2018-11-11T11:19:38.540Z,433.17
2018-11-11T11:22:08.372Z,499.63
2018-11-11T11:24:37.357Z,540.47
2018-11-11T11:27:06.468Z,582.07
2018-11-11T11:29:35.692Z,524.93
2018-11-11T11:32:04.828Z,553.57
2018-11-11T11:34:33.865Z,541.63
2018-11-11T11:37:02.907Z,540.20
2018-11-11T11:39:32.111Z,554.40
2018-11-11T11:42:07.401Z,532.23
2018-11-11T11:44:36.847Z,523.83
2018-11-11T11:47:07.428Z,533.43
2018-11-11T11:49:36.428Z,571.50
2018-11-11T11:52:06.372Z,559.93
2018-11-11T11:54:35.425Z,528.90
2018-11-11T11:57:08.366Z,577.37
2018-11-11T11:59:37.456Z,534.67
2018-11-11T12:02:06.571Z,533.67
2018-11-11T12:04:35.490Z,542.83
2018-11-11T12:07:04.709Z,510.20
2018-11-11T12:09:33.823Z,479.27
2018-11-11T12:12:02.889Z,521.70
2018-11-11T12:14:31.981Z,463.77
2018-11-11T12:17:02.796Z,475.53
2018-11-11T12:19:31.856Z,499.00
2018-11-11T12:22:00.932Z,470.73
2018-11-11T12:24:29.939Z,449.27
2018-11-11T12:26:59.164Z,464.40
2018-11-11T12:29:28.102Z,438.80
2018-11-11T12:31:57.088Z,447.13
2018-11-11T12:34:26.167Z,439.10
2018-11-11T12:36:55.174Z,434.97
2018-11-11T12:39:24.197Z,380.83
2018-11-11T12:41:53.188Z,342.13
2018-11-11T12:44:22.169Z,333.23
2018-11-11T12:46:51.239Z,404.13
2018-11-11T12:49:20.236Z,434.53
2018-11-11T12:51:49.555Z,406.53
2018-11-11T12:54:18.513Z,419.13
2018-11-11T12:56:47.499Z,439.23
2018-11-11T12:59:16.472Z,460.03
2018-11-11T13:01:45.488Z,501.90
2018-11-11T13:04:14.572Z,507.03
2018-11-11T13:06:43.584Z,468.03
2018-11-11T13:09:12.603Z,534.27
2018-11-11T13:11:41.758Z,507.70
2018-11-11T13:14:10.797Z,492.97
2018-11-11T13:16:39.819Z,496.67
2018-11-11T13:19:10.414Z,492.13
2018-11-11T13:21:40.266Z,489.93
2018-11-11T13:24:10.007Z,490.83
2018-11-11T13:26:39.050Z,461.50
2018-11-11T13:29:08.120Z,512.40
2018-11-11T13:31:37.240Z,580.57
2018-11-11T13:34:06.524Z,509.37
2018-11-11T13:36:35.459Z,537.57
2018-11-11T13:39:07.381Z,537.10
2018-11-11T13:41:37.603Z,545.30
2018-11-11T13:44:07.050Z,500.57
2018-11-11T13:46:36.239Z,541.07
2018-11-11T13:49:08.125Z,527.83
2018-11-11T13:51:37.789Z,526.57
2018-11-11T13:54:12.146Z,515.13
2018-11-11T13:56:41.674Z,519.97
2018-11-11T13:59:10.705Z,514.03
2018-11-11T14:01:39.996Z,521.50
2018-11-11T14:04:09.043Z,519.80
2018-11-11T14:06:38.077Z,504.60
2018-11-11T14:09:11.472Z,510.03
2018-11-11T14:11:41.267Z,514.10
2018-11-11T14:14:10.435Z,507.57
2018-11-11T14:16:39.435Z,487.37
2018-11-11T14:19:08.709Z,483.17
2018-11-11T14:21:37.446Z,507.33
2018-11-11T14:24:06.505Z,520.50
2018-11-11T14:26:35.713Z,527.30
2018-11-11T14:29:04.575Z,528.63
2018-11-11T14:31:33.688Z,542.10
2018-11-11T14:34:02.652Z,523.53
2018-11-11T14:36:31.708Z,544.10
2018-11-11T14:39:07.435Z,531.87
2018-11-11T14:41:36.468Z,521.63
2018-11-11T14:44:05.672Z,525.33
2018-11-11T14:46:34.656Z,527.30
2018-11-11T14:49:03.762Z,548.57
2018-11-11T14:51:32.821Z,550.00
2018-11-11T14:54:01.843Z,554.47
2018-11-11T14:56:30.843Z,519.97
2018-11-11T14:59:00.099Z,520.00
2018-11-11T15:01:29.001Z,526.83
2018-11-11T15:03:58.106Z,538.13
2018-11-11T15:06:28.425Z,525.97
2018-11-11T15:08:57.555Z,551.37
2018-11-11T15:11:26.724Z,536.17
2018-11-11T15:13:55.715Z,539.10
2018-11-11T15:16:24.672Z,533.07
2018-11-11T15:18:53.706Z,533.07
2018-11-11T15:21:22.694Z,523.03
2018-11-11T15:23:51.700Z,537.90
2018-11-11T15:26:20.645Z,533.60
2018-11-11T15:28:49.696Z,541.50
2018-11-11T15:31:18.779Z,533.07
2018-11-11T15:33:47.797Z,543.67
2018-11-11T15:36:16.814Z,535.90
2018-11-11T15:38:45.903Z,537.10
2018-11-11T15:41:14.937Z,514.80
2018-11-11T15:43:43.907Z,480.67
2018-11-11T15:46:13.034Z,444.80
2018-11-11T15:48:42.185Z,354.17
2018-11-11T15:51:12.407Z,391.73
2018-11-11T15:53:41.467Z,411.17
2018-11-11T15:56:10.457Z,373.33
2018-11-11T15:58:39.462Z,402.23
2018-11-11T16:01:08.436Z,409.30
2018-11-11T16:03:37.409Z,406.93
2018-11-11T16:06:06.436Z,430.00
2018-11-11T16:08:35.456Z,440.43
2018-11-11T16:11:04.551Z,422.47
2018-11-11T16:13:33.515Z,452.57
2018-11-11T16:16:02.551Z,429.73
2018-11-11T16:18:31.587Z,480.73
2018-11-11T16:21:00.544Z,510.53
2018-11-11T16:23:29.633Z,431.17
2018-11-11T16:25:58.579Z,388.23
2018-11-11T16:28:27.552Z,377.57
2018-11-11T16:30:56.607Z,395.93
2018-11-11T16:33:25.634Z,366.13
2018-11-11T16:35:54.619Z,399.27
2018-11-11T16:38:23.637Z,425.90
2018-11-11T16:40:52.776Z,451.13
2018-11-11T16:43:21.628Z,469.93
2018-11-11T16:45:50.593Z,485.27
2018-11-11T16:48:19.644Z,509.17
2018-11-11T16:50:49.271Z,516.53
2018-11-11T16:53:18.325Z,521.07
2018-11-11T16:55:47.256Z,473.07
2018-11-11T16:58:16.248Z,487.67
2018-11-11T17:00:45.520Z,466.77
2018-11-11T17:03:14.641Z,543.33
2018-11-11T17:05:43.597Z,599.30
2018-11-11T17:08:12.634Z,627.93
2018-11-11T17:10:41.634Z,672.77
2018-11-11T17:13:12.043Z,602.20
2018-11-11T17:15:47.523Z,593.90
2018-11-11T17:18:16.560Z,582.97
2018-11-11T17:20:45.540Z,557.73
2018-11-11T17:23:14.513Z,595.10
2018-11-11T17:25:43.518Z,608.80
2018-11-11T17:28:12.625Z,625.53
2018-11-11T17:30:41.647Z,576.50
2018-11-11T17:33:10.657Z,603.77
2018-11-11T17:35:39.813Z,604.00
2018-11-11T17:38:08.824Z,615.80
2018-11-11T17:40:37.858Z,589.80
2018-11-11T17:43:06.914Z,603.53
2018-11-11T17:45:35.863Z,641.57
2018-11-11T17:48:04.902Z,604.07
2018-11-11T17:50:34.343Z,598.70
2018-11-11T17:53:04.583Z,601.17
2018-11-11T17:55:33.778Z,591.13
2018-11-11T17:58:02.793Z,534.93
2018-11-11T18:00:33.834Z,490.43
2018-11-11T18:03:04.533Z,450.70
2018-11-11T18:05:35.032Z,410.23
2018-11-11T18:08:04.642Z,364.57
2018-11-11T18:10:33.863Z,354.57
2018-11-11T18:13:04.361Z,287.17
2018-11-11T18:15:35.113Z,271.23
2018-11-11T18:18:06.132Z,260.47
2018-11-11T18:20:36.404Z,261.70
2018-11-11T18:23:07.372Z,258.60
2018-11-11T18:25:38.250Z,268.50
2018-11-11T18:28:08.559Z,305.97
2018-11-11T18:30:39.556Z,315.60
2018-11-11T18:33:09.781Z,326.13
2018-11-11T18:35:40.287Z,298.93
2018-11-11T18:38:10.687Z,320.47
2018-11-11T18:40:40.711Z,299.63
2018-11-11T18:43:10.236Z,313.63
2018-11-11T18:45:40.491Z,290.27
2018-11-11T18:48:10.739Z,272.03
2018-11-11T18:50:41.064Z,288.83
2018-11-11T18:53:10.153Z,268.33
2018-11-11T18:55:39.158Z,259.53
2018-11-11T18:58:08.226Z,257.00
2018-11-11T19:00:37.241Z,280.37
2018-11-11T19:03:06.240Z,297.13
2018-11-11T19:05:35.275Z,332.03
2018-11-11T19:08:04.335Z,298.70
2018-11-11T19:10:33.994Z,314.20
2018-11-11T19:13:05.279Z,300.03
2018-11-11T19:15:34.333Z,299.30
2018-11-11T19:18:11.503Z,276.17
2018-11-11T19:20:47.963Z,312.67
2018-11-11T19:23:27.543Z,318.93
2018-11-11T19:26:04.930Z,317.70
2018-11-11T19:28:48.465Z,334.60
2018-11-11T19:31:32.902Z,369.57
2018-11-11T19:34:13.155Z,389.40
2018-11-11T19:39:45.428Z,427.33
2018-11-11T19:42:29.837Z,503.97
2018-11-11T19:45:16.532Z,533.80
2018-11-11T19:48:13.032Z,593.67
2018-11-11T19:50:57.957Z,638.23
2018-11-11T19:53:35.453Z,629.70
2018-11-11T19:56:20.971Z,663.30
2018-11-11T19:59:09.144Z,682.20
2018-11-11T20:01:57.532Z,688.50
2018-11-11T20:07:33.054Z,713.23
2018-11-11T20:10:20.730Z,714.70
2018-11-11T20:13:11.577Z,733.77
2018-11-11T20:15:49.096Z,742.87
2018-11-11T20:18:28.093Z,744.53
2018-11-11T20:21:13.534Z,751.00
2018-11-11T20:23:56.910Z,770.43
2018-11-11T20:26:47.035Z,766.33
2018-11-11T20:29:23.406Z,763.20
2018-11-11T20:32:05.005Z,768.80
2018-11-11T20:34:50.027Z,782.57
2018-11-11T20:37:29.515Z,794.10
2018-11-11T20:40:20.438Z,779.00
2018-11-11T20:43:04.411Z,801.93
2018-11-11T20:45:46.865Z,797.97
2018-11-11T20:48:30.756Z,786.23
2018-11-11T20:51:10.411Z,823.33
2018-11-11T20:54:01.753Z,826.93
2018-11-11T20:56:54.411Z,842.37
2018-11-11T20:59:45.777Z,861.93
2018-11-11T21:02:31.495Z,755.97
2018-11-11T21:07:52.512Z,726.03
2018-11-11T21:10:37.997Z,757.60
2018-11-11T21:13:07.730Z,751.87
2018-11-11T21:15:38.690Z,724.50
2018-11-11T21:18:07.704Z,715.23
2018-11-11T21:20:36.751Z,748.70
2018-11-11T21:23:06.160Z,720.00
2018-11-11T21:25:35.207Z,705.77
2018-11-11T21:28:04.196Z,701.13
2018-11-11T21:30:33.755Z,736.53
2018-11-11T21:33:02.710Z,755.73
2018-11-11T21:35:31.728Z,780.80
2018-11-11T21:38:00.765Z,751.57
2018-11-11T21:40:29.718Z,759.57
2018-11-11T21:42:58.646Z,725.87
2018-11-11T21:45:28.480Z,724.97
2018-11-11T21:47:57.525Z,740.13
2018-11-11T21:50:27.346Z,761.00
2018-11-11T21:53:06.484Z,732.37
2018-11-11T21:55:35.504Z,760.23
2018-11-11T21:58:04.526Z,763.97
2018-11-11T22:00:33.538Z,745.03
2018-11-11T22:03:02.694Z,780.60
2018-11-11T22:05:31.768Z,766.60
2018-11-11T22:08:00.647Z,774.93
2018-11-11T22:10:29.631Z,778.63
2018-11-11T22:12:58.593Z,750.77
2018-11-11T22:15:27.608Z,802.77
2018-11-11T22:17:56.644Z,779.77
2018-11-11T22:20:30.740Z,770.23
2018-11-11T22:22:59.809Z,734.37
2018-11-11T22:25:28.755Z,736.67
2018-11-11T22:28:02.493Z,745.63
2018-11-11T22:30:35.943Z,769.83
2018-11-11T22:33:06.869Z,756.30
2018-11-11T22:35:35.951Z,806.20
2018-11-11T22:38:05.476Z,823.50
2018-11-11T22:40:34.535Z,827.70
2018-11-11T22:43:03.745Z,823.77
2018-11-11T22:45:32.813Z,860.13
2018-11-11T22:48:01.797Z,845.53
2018-11-11T22:50:30.792Z,880.30
2018-11-11T22:52:59.841Z,875.70
2018-11-11T22:55:29.627Z,815.13
2018-11-11T22:57:58.857Z,836.40
2018-11-11T23:00:29.324Z,857.37
2018-11-11T23:02:58.367Z,843.27
2018-11-11T23:05:27.457Z,873.10
2018-11-11T23:07:58.377Z,848.13
2018-11-11T23:10:28.440Z,841.93
2018-11-11T23:12:57.523Z,838.27
2018-11-11T23:15:26.660Z,860.20
2018-11-11T23:17:56.745Z,845.87
2018-11-11T23:20:25.804Z,853.93
2018-11-11T23:22:55.043Z,855.63
2018-11-11T23:25:24.072Z,872.90
2018-11-11T23:27:55.160Z,874.63
2018-11-11T23:30:24.215Z,839.40
2018-11-11T23:32:53.308Z,858.10
2018-11-11T23:35:23.178Z,835.80
2018-11-11T23:37:52.215Z,831.40
2018-11-11T23:40:21.418Z,831.47
2018-11-11T23:42:51.021Z,812.33
2018-11-11T23:45:20.029Z,811.77
2018-11-11T23:47:49.093Z,823.43
2018-11-11T23:50:19.132Z,852.00
2018-11-11T23:52:48.632Z,830.97
2018-11-11T23:55:18.689Z,841.77
2018-11-11T23:57:48.478Z,869.60
